Terminal Aerodrome Forecast
Issued by NWS

Home | Current Version | Previous Version | Text Only | Print | Product List | Glossary On
Versions: 1 2 3 4 5 6 7 8 9 10 11 12 13 14 15 16 17 18 19 20 21 22 23 24 25 26 27 28
013
FTUS41 KGYX 300532
TAFRKD
TAF
KRKD 300532Z 3006/3106 VRB03KT 1 1/2SM -RA BR OVC001
     FM301800 21007KT P6SM BKN035 OVC050
     FM302200 22006KT 1/2SM FG OVC003
      AMD LTD TO CLD VIS AND WIND=

USA.gov is the U.S. government's official web portal to all federal, state and local government web resources and services.